DRGN04 YAMB-YAMB
Flight info
| Callsign | DRGN04 |
|---|---|
| Flight time | 0h 13m |
| Altitude | 22000 |
| Route | YAMB PONUX YAMB |
| Aircraft | A339/M-SDE2E3FGHIJ1RWXY/LB1 |
Departure
| Time | 2026-04-16 05:02 |
|---|---|
| Airport | RAAF Base Amberley (YAMB) |
Arrival
| Time | 2026-04-16 05:15 |
|---|---|
| Airport | RAAF Base Amberley (YAMB) |
| Time | Latitude | Longitude | Altitude | Speed | Heading |
|---|---|---|---|---|---|
| 2026-04-16 04:53 | -26.68314 | 153.65820 | 22139 ft | 392 kts | 200° |
| 2026-04-16 04:53 | -26.70943 | 153.64990 | 22140 ft | 392 kts | 201° |
| 2026-04-16 04:54 | -26.73572 | 153.64160 | 22136 ft | 392 kts | 201° |
| 2026-04-16 04:54 | -26.76201 | 153.63329 | 22135 ft | 392 kts | 201° |
| 2026-04-16 04:54 | -26.78828 | 153.62499 | 22134 ft | 392 kts | 201° |
| 2026-04-16 04:54 | -26.81417 | 153.61680 | 22136 ft | 392 kts | 201° |
| 2026-04-16 04:55 | -26.84078 | 153.60838 | 22137 ft | 392 kts | 201° |
| 2026-04-16 04:55 | -26.86599 | 153.59845 | 22135 ft | 387 kts | 208° |
| 2026-04-16 04:55 | -26.88958 | 153.58423 | 22133 ft | 383 kts | 217° |
| 2026-04-16 04:55 | -26.91070 | 153.56637 | 22133 ft | 379 kts | 225° |
| 2026-04-16 04:56 | -26.93029 | 153.54662 | 22133 ft | 379 kts | 225° |
| 2026-04-16 04:56 | -26.94997 | 153.52696 | 22133 ft | 379 kts | 225° |
| 2026-04-16 04:56 | -26.96329 | 153.51371 | 22134 ft | 379 kts | 225° |
| 2026-04-16 04:56 | -26.98944 | 153.48770 | 22131 ft | 379 kts | 225° |
| 2026-04-16 04:57 | -27.00275 | 153.47445 | 22133 ft | 379 kts | 225° |
| 2026-04-16 04:57 | -27.02243 | 153.45483 | 22129 ft | 379 kts | 225° |
| 2026-04-16 04:57 | -27.04850 | 153.42881 | 22134 ft | 379 kts | 225° |
| 2026-04-16 04:57 | -27.06180 | 153.41553 | 22131 ft | 379 kts | 225° |
| 2026-04-16 04:58 | -27.08152 | 153.39583 | 22127 ft | 379 kts | 225° |
| 2026-04-16 04:58 | -27.10121 | 153.37615 | 22131 ft | 379 kts | 225° |
| 2026-04-16 04:58 | -27.12091 | 153.35644 | 22125 ft | 379 kts | 225° |
| 2026-04-16 04:58 | -27.14057 | 153.33676 | 22126 ft | 379 kts | 225° |
| 2026-04-16 04:59 | -27.16026 | 153.31705 | 22121 ft | 379 kts | 225° |
| 2026-04-16 04:59 | -27.17993 | 153.29734 | 22117 ft | 379 kts | 225° |
| 2026-04-16 04:59 | -27.19960 | 153.27763 | 22120 ft | 379 kts | 225° |
| 2026-04-16 04:59 | -27.21928 | 153.25789 | 22112 ft | 379 kts | 225° |
| 2026-04-16 05:00 | -27.23868 | 153.23844 | 22110 ft | 379 kts | 225° |
| 2026-04-16 05:00 | -27.25857 | 153.21847 | 21934 ft | 380 kts | 225° |
| 2026-04-16 05:00 | -27.27832 | 153.19862 | 21469 ft | 380 kts | 225° |
| 2026-04-16 05:00 | -27.29775 | 153.17905 | 20820 ft | 380 kts | 225° |
| 2026-04-16 05:01 | -27.31760 | 153.15904 | 20177 ft | 377 kts | 225° |
| 2026-04-16 05:01 | -27.33666 | 153.13983 | 19547 ft | 366 kts | 225° |
| 2026-04-16 05:01 | -27.35420 | 153.11993 | 18923 ft | 351 kts | 234° |
| 2026-04-16 05:01 | -27.36701 | 153.09702 | 18325 ft | 345 kts | 246° |
| 2026-04-16 05:02 | -27.37492 | 153.07167 | 17631 ft | 344 kts | 258° |
| 2026-04-16 05:02 | -27.37951 | 153.04529 | 16953 ft | 343 kts | 259° |
| 2026-04-16 05:02 | -27.38417 | 153.01865 | 16279 ft | 343 kts | 259° |
| 2026-04-16 05:02 | -27.38878 | 152.99270 | 15635 ft | 342 kts | 259° |
| 2026-04-16 05:03 | -27.39345 | 152.96650 | 15003 ft | 341 kts | 259° |
| 2026-04-16 05:03 | -27.39809 | 152.94038 | 14371 ft | 340 kts | 259° |
| 2026-04-16 05:03 | -27.40271 | 152.91430 | 13736 ft | 339 kts | 259° |
| 2026-04-16 05:04 | -27.41190 | 152.86241 | 12373 ft | 336 kts | 259° |
| 2026-04-16 05:04 | -27.41643 | 152.83676 | 11703 ft | 330 kts | 259° |
| 2026-04-16 05:04 | -27.42082 | 152.81192 | 11057 ft | 318 kts | 259° |
| 2026-04-16 05:04 | -27.42814 | 152.78903 | 10444 ft | 307 kts | 240° |
| 2026-04-16 05:05 | -27.44180 | 152.77143 | 10179 ft | 298 kts | 219° |
| 2026-04-16 05:05 | -27.46033 | 152.76036 | 10090 ft | 306 kts | 198° |
| 2026-04-16 05:05 | -27.48107 | 152.75502 | 10066 ft | 306 kts | 194° |
| 2026-04-16 05:05 | -27.50186 | 152.75000 | 9846 ft | 306 kts | 194° |
| 2026-04-16 05:06 | -27.52258 | 152.74500 | 9338 ft | 303 kts | 193° |
| 2026-04-16 05:06 | -27.54304 | 152.74007 | 8836 ft | 298 kts | 193° |
| 2026-04-16 05:06 | -27.56322 | 152.73518 | 8335 ft | 295 kts | 193° |
| 2026-04-16 05:06 | -27.58323 | 152.73031 | 7846 ft | 293 kts | 193° |
| 2026-04-16 05:07 | -27.60327 | 152.72542 | 7360 ft | 302 kts | 194° |
| 2026-04-16 05:07 | -27.62210 | 152.71623 | 6884 ft | 289 kts | 217° |
| 2026-04-16 05:07 | -27.63497 | 152.70000 | 6410 ft | 272 kts | 241° |
| 2026-04-16 05:07 | -27.64083 | 152.68023 | 5914 ft | 268 kts | 263° |
| 2026-04-16 05:08 | -27.64092 | 152.65908 | 5423 ft | 270 kts | 272° |
| 2026-04-16 05:08 | -27.64036 | 152.63811 | 5149 ft | 266 kts | 271° |
| 2026-04-16 05:08 | -27.64353 | 152.61753 | 5079 ft | 270 kts | 247° |
| 2026-04-16 05:08 | -27.65471 | 152.60071 | 5063 ft | 271 kts | 220° |
| 2026-04-16 05:09 | -27.67155 | 152.59143 | 5070 ft | 273 kts | 193° |
| 2026-04-16 05:09 | -27.69045 | 152.59174 | 5074 ft | 276 kts | 166° |
| 2026-04-16 05:09 | -27.70669 | 152.60134 | 5066 ft | 253 kts | 137° |
| 2026-04-16 05:09 | -27.71581 | 152.61711 | 5066 ft | 233 kts | 106° |
| 2026-04-16 05:10 | -27.71908 | 152.63439 | 5054 ft | 219 kts | 101° |
| 2026-04-16 05:10 | -27.72245 | 152.65143 | 4847 ft | 227 kts | 103° |
| 2026-04-16 05:10 | -27.72669 | 152.66880 | 4406 ft | 233 kts | 106° |
| 2026-04-16 05:10 | -27.73155 | 152.68618 | 3939 ft | 230 kts | 107° |
| 2026-04-16 05:11 | -27.73363 | 152.70364 | 3442 ft | 221 kts | 88° |
| 2026-04-16 05:11 | -27.73332 | 152.72083 | 2844 ft | 219 kts | 87° |
| 2026-04-16 05:11 | -27.73007 | 152.73703 | 2413 ft | 207 kts | 61° |
| 2026-04-16 05:11 | -27.71968 | 152.74792 | 1870 ft | 215 kts | 18° |
| 2026-04-16 05:12 | -27.70493 | 152.74447 | 1667 ft | 240 kts | 336° |
| 2026-04-16 05:12 | -27.68905 | 152.73691 | 1432 ft | 269 kts | 338° |
| 2026-04-16 05:12 | -27.67027 | 152.72869 | 1280 ft | 309 kts | 339° |
| 2026-04-16 05:12 | -27.64950 | 152.71968 | 895 ft | 341 kts | 339° |
| 2026-04-16 05:13 | -27.62769 | 152.70923 | 1509 ft | 318 kts | 306° |
| 2026-04-16 05:13 | -27.62460 | 152.68604 | 1688 ft | 308 kts | 235° |
| 2026-04-16 05:13 | -27.64313 | 152.68332 | 1624 ft | 268 kts | 159° |
| 2026-04-16 05:13 | -27.65862 | 152.69154 | 1676 ft | 219 kts | 152° |
| 2026-04-16 05:14 | -27.67097 | 152.69880 | 1513 ft | 183 kts | 149° |
| 2026-04-16 05:14 | -27.67660 | 152.70952 | 1155 ft | 159 kts | 89° |
| 2026-04-16 05:14 | -27.67254 | 152.72014 | 729 ft | 140 kts | 37° |
| 2026-04-16 05:14 | -27.66278 | 152.72234 | 518 ft | 154 kts | 353° |
| 2026-04-16 05:15 | -27.65271 | 152.71879 | 264 ft | 152 kts | 339° |
| 2026-04-16 05:15 | -27.64310 | 152.71461 | 107 ft | 138 kts | 341° |
| 2026-04-16 05:15 | -27.63754 | 152.71222 | 108 ft | 58 kts | 338° |
| 2026-04-16 05:15 | -27.63453 | 152.71087 | 103 ft | 19 kts | 332° |
| 2026-04-16 05:16 | -27.63389 | 152.70968 | 103 ft | 19 kts | 284° |
| 2026-04-16 05:16 | -27.63346 | 152.70837 | 104 ft | 16 kts | 314° |
| 2026-04-16 05:16 | -27.63248 | 152.70782 | 104 ft | 16 kts | 337° |
| 2026-04-16 05:16 | -27.63111 | 152.70726 | 105 ft | 27 kts | 340° |
| 2026-04-16 05:17 | -27.62894 | 152.70631 | 106 ft | 39 kts | 339° |
| 2026-04-16 05:17 | -27.62675 | 152.70533 | 105 ft | 28 kts | 339° |
| 2026-04-16 05:17 | -27.62557 | 152.70461 | 105 ft | 0 kts | 305° |
| 2026-04-16 05:17 | -27.62549 | 152.70417 | 103 ft | 8 kts | 290° |
| 2026-04-16 05:18 | -27.62514 | 152.70380 | 102 ft | 7 kts | 329° |
| 2026-04-16 05:18 | -27.62495 | 152.70370 | 102 ft | 1 kts | 335° |
| 2026-04-16 05:18 | -27.62488 | 152.70366 | 102 ft | 0 kts | 336° |